Terminal Aerodrome Forecast
Issued by NWS Pittsburgh, PA

Home | Current Version | Previous Version | Text Only | Print | Product List | Glossary On
Versions: 1 2 3 4 5 6 7 8 9 10 11 12 13 14 15 16 17 18 19 20 21 22 23 24 25 26 27 28 29 30 31 32 33 34 35 36
000
FTUS41 KPBZ 241457 AAB
TAFPIT
TAF AMD
KPIT 241457Z 2415/2518 30010KT P6SM -RA OVC005
     FM241600 30010KT P6SM OVC008
     FM241900 30010KT P6SM OVC010
     FM251000 22005KT P6SM OVC015
     FM251500 19008KT P6SM SCT030=

USA.gov is the U.S. government's official web portal to all federal, state and local government web resources and services.